sensor_id;sensor_type;location;lat;lon;timestamp;temperature;humidity
5429;DHT22;2737;52.386;9.980;2023-03-12T00:01:15;-0.90;99.90
5429;DHT22;2737;52.386;9.980;2023-03-12T00:03:43;-0.90;99.90
5429;DHT22;2737;52.386;9.980;2023-03-12T00:06:10;-0.90;99.90
5429;DHT22;2737;52.386;9.980;2023-03-12T00:08:38;-0.90;99.90
5429;DHT22;2737;52.386;9.980;2023-03-12T00:11:07;-0.90;99.90
5429;DHT22;2737;52.386;9.980;2023-03-12T00:13:34;-1.00;99.90
5429;DHT22;2737;52.386;9.980;2023-03-12T00:16:06;-1.00;99.90
5429;DHT22;2737;52.386;9.980;2023-03-12T00:18:34;-1.00;99.90
5429;DHT22;2737;52.386;9.980;2023-03-12T00:21:03;-1.00;99.90
5429;DHT22;2737;52.386;9.980;2023-03-12T00:23:30;-1.00;99.90
5429;DHT22;2737;52.386;9.980;2023-03-12T00:26:01;-1.00;99.90
5429;DHT22;2737;52.386;9.980;2023-03-12T00:28:29;-1.00;99.90
5429;DHT22;2737;52.386;9.980;2023-03-12T00:30:56;-1.00;99.90
5429;DHT22;2737;52.386;9.980;2023-03-12T00:33:24;-1.00;99.90
5429;DHT22;2737;52.386;9.980;2023-03-12T00:35:51;-1.00;99.90
5429;DHT22;2737;52.386;9.980;2023-03-12T00:38:20;-1.10;99.90
5429;DHT22;2737;52.386;9.980;2023-03-12T00:40:47;-1.10;99.90
5429;DHT22;2737;52.386;9.980;2023-03-12T00:43:14;-1.00;99.90
5429;DHT22;2737;52.386;9.980;2023-03-12T00:45:41;-1.10;99.90
5429;DHT22;2737;52.386;9.980;2023-03-12T00:48:08;-1.10;99.90
5429;DHT22;2737;52.386;9.980;2023-03-12T00:50:35;-1.10;99.90
5429;DHT22;2737;52.386;9.980;2023-03-12T00:53:02;-1.10;99.90
5429;DHT22;2737;52.386;9.980;2023-03-12T00:55:30;-1.10;99.90
5429;DHT22;2737;52.386;9.980;2023-03-12T00:57:57;-1.20;99.90
5429;DHT22;2737;52.386;9.980;2023-03-12T01:00:24;-1.10;99.90
5429;DHT22;2737;52.386;9.980;2023-03-12T01:02:51;-1.10;99.90
5429;DHT22;2737;52.386;9.980;2023-03-12T01:05:19;-1.10;99.90
5429;DHT22;2737;52.386;9.980;2023-03-12T01:07:47;-1.20;99.90
5429;DHT22;2737;52.386;9.980;2023-03-12T01:10:15;-1.20;99.90
5429;DHT22;2737;52.386;9.980;2023-03-12T01:12:43;-1.10;99.90
5429;DHT22;2737;52.386;9.980;2023-03-12T01:15:13;-1.10;99.90
5429;DHT22;2737;52.386;9.980;2023-03-12T01:17:40;-1.00;99.90
5429;DHT22;2737;52.386;9.980;2023-03-12T01:20:09;-1.00;99.90
5429;DHT22;2737;52.386;9.980;2023-03-12T01:22:37;-1.00;99.90
5429;DHT22;2737;52.386;9.980;2023-03-12T01:25:05;-0.90;99.90
5429;DHT22;2737;52.386;9.980;2023-03-12T01:27:32;-0.90;99.90
5429;DHT22;2737;52.386;9.980;2023-03-12T01:30:01;-0.90;99.90
5429;DHT22;2737;52.386;9.980;2023-03-12T01:32:28;-0.90;99.90
5429;DHT22;2737;52.386;9.980;2023-03-12T01:34:56;-0.90;99.90
5429;DHT22;2737;52.386;9.980;2023-03-12T01:37:25;-1.00;99.90
5429;DHT22;2737;52.386;9.980;2023-03-12T01:39:52;-1.00;99.90
5429;DHT22;2737;52.386;9.980;2023-03-12T01:42:19;-1.00;99.90
5429;DHT22;2737;52.386;9.980;2023-03-12T01:44:51;-1.00;99.90
5429;DHT22;2737;52.386;9.980;2023-03-12T01:47:20;-1.10;99.90
5429;DHT22;2737;52.386;9.980;2023-03-12T01:49:48;-1.10;99.90
5429;DHT22;2737;52.386;9.980;2023-03-12T01:52:19;-1.10;99.90
5429;DHT22;2737;52.386;9.980;2023-03-12T01:54:51;-1.10;99.90
5429;DHT22;2737;52.386;9.980;2023-03-12T01:57:21;-1.10;99.90
5429;DHT22;2737;52.386;9.980;2023-03-12T01:59:51;-1.10;99.90
5429;DHT22;2737;52.386;9.980;2023-03-12T02:02:20;-1.20;99.90
5429;DHT22;2737;52.386;9.980;2023-03-12T02:04:57;-1.20;99.90
5429;DHT22;2737;52.386;9.980;2023-03-12T02:07:25;-1.30;99.90
5429;DHT22;2737;52.386;9.980;2023-03-12T02:09:52;-1.30;99.90
5429;DHT22;2737;52.386;9.980;2023-03-12T02:12:19;-1.30;99.90
5429;DHT22;2737;52.386;9.980;2023-03-12T02:14:46;-1.30;99.90
5429;DHT22;2737;52.386;9.980;2023-03-12T02:17:14;-1.30;99.90
5429;DHT22;2737;52.386;9.980;2023-03-12T02:19:49;-1.30;99.90
5429;DHT22;2737;52.386;9.980;2023-03-12T02:22:17;-1.30;99.90
5429;DHT22;2737;52.386;9.980;2023-03-12T02:24:48;-1.30;99.90
5429;DHT22;2737;52.386;9.980;2023-03-12T02:27:20;-1.30;99.90
5429;DHT22;2737;52.386;9.980;2023-03-12T02:29:48;-1.30;99.90
5429;DHT22;2737;52.386;9.980;2023-03-12T02:32:20;-1.30;99.90
5429;DHT22;2737;52.386;9.980;2023-03-12T02:37:24;-1.40;99.90
5429;DHT22;2737;52.386;9.980;2023-03-12T02:39:55;-1.40;99.90
5429;DHT22;2737;52.386;9.980;2023-03-12T02:42:27;-1.40;99.90
5429;DHT22;2737;52.386;9.980;2023-03-12T02:44:54;-1.40;99.90
5429;DHT22;2737;52.386;9.980;2023-03-12T02:47:21;-1.50;99.90
5429;DHT22;2737;52.386;9.980;2023-03-12T02:49:48;-1.40;99.90
5429;DHT22;2737;52.386;9.980;2023-03-12T02:52:15;-1.50;99.90
5429;DHT22;2737;52.386;9.980;2023-03-12T02:54:42;-1.40;99.90
5429;DHT22;2737;52.386;9.980;2023-03-12T02:57:09;-1.40;99.90
5429;DHT22;2737;52.386;9.980;2023-03-12T02:59:37;-1.40;99.90
5429;DHT22;2737;52.386;9.980;2023-03-12T03:02:04;-1.40;99.90
5429;DHT22;2737;52.386;9.980;2023-03-12T03:04:31;-1.40;99.90
5429;DHT22;2737;52.386;9.980;2023-03-12T03:07:00;-1.40;99.90
5429;DHT22;2737;52.386;9.980;2023-03-12T03:09:27;-1.40;99.90
5429;DHT22;2737;52.386;9.980;2023-03-12T03:11:54;-1.40;99.90
5429;DHT22;2737;52.386;9.980;2023-03-12T03:14:22;-1.40;99.90
5429;DHT22;2737;52.386;9.980;2023-03-12T03:16:50;-1.50;99.90
5429;DHT22;2737;52.386;9.980;2023-03-12T03:19:17;-1.50;99.90
5429;DHT22;2737;52.386;9.980;2023-03-12T03:21:44;-1.50;99.90
5429;DHT22;2737;52.386;9.980;2023-03-12T03:24:12;-1.50;99.90
5429;DHT22;2737;52.386;9.980;2023-03-12T03:26:39;-1.50;99.90
5429;DHT22;2737;52.386;9.980;2023-03-12T03:29:06;-1.50;99.90
5429;DHT22;2737;52.386;9.980;2023-03-12T03:31:33;-1.50;99.90
5429;DHT22;2737;52.386;9.980;2023-03-12T03:34:02;-1.50;99.90
5429;DHT22;2737;52.386;9.980;2023-03-12T03:36:29;-1.60;99.90
5429;DHT22;2737;52.386;9.980;2023-03-12T03:38:56;-1.60;99.90
5429;DHT22;2737;52.386;9.980;2023-03-12T03:41:23;-1.60;99.90
5429;DHT22;2737;52.386;9.980;2023-03-12T03:43:55;-1.60;99.90
5429;DHT22;2737;52.386;9.980;2023-03-12T03:46:23;-1.60;99.90
5429;DHT22;2737;52.386;9.980;2023-03-12T03:48:50;-1.60;99.90
5429;DHT22;2737;52.386;9.980;2023-03-12T03:51:19;-1.60;99.90
5429;DHT22;2737;52.386;9.980;2023-03-12T03:53:46;-1.70;99.90
5429;DHT22;2737;52.386;9.980;2023-03-12T03:56:14;-1.70;99.90
5429;DHT22;2737;52.386;9.980;2023-03-12T03:58:42;-1.70;99.90
5429;DHT22;2737;52.386;9.980;2023-03-12T04:01:10;-1.70;99.90
5429;DHT22;2737;52.386;9.980;2023-03-12T04:03:38;-1.70;99.90
5429;DHT22;2737;52.386;9.980;2023-03-12T04:06:06;-1.70;99.90
5429;DHT22;2737;52.386;9.980;2023-03-12T04:08:35;-1.70;99.90
5429;DHT22;2737;52.386;9.980;2023-03-12T04:11:06;-1.70;99.90
5429;DHT22;2737;52.386;9.980;2023-03-12T04:13:34;-1.70;99.90
5429;DHT22;2737;52.386;9.980;2023-03-12T04:16:01;-1.70;99.90
5429;DHT22;2737;52.386;9.980;2023-03-12T04:18:28;-1.70;99.90
5429;DHT22;2737;52.386;9.980;2023-03-12T04:20:56;-1.70;99.90
5429;DHT22;2737;52.386;9.980;2023-03-12T04:23:23;-1.70;99.90
5429;DHT22;2737;52.386;9.980;2023-03-12T04:25:51;-1.70;99.90
5429;DHT22;2737;52.386;9.980;2023-03-12T04:28:18;-1.70;99.90
5429;DHT22;2737;52.386;9.980;2023-03-12T04:30:53;-1.70;99.90
5429;DHT22;2737;52.386;9.980;2023-03-12T04:33:20;-1.70;99.90
5429;DHT22;2737;52.386;9.980;2023-03-12T04:35:50;-1.70;99.90
5429;DHT22;2737;52.386;9.980;2023-03-12T04:38:17;-1.70;99.90
5429;DHT22;2737;52.386;9.980;2023-03-12T04:40:44;-1.70;99.90
5429;DHT22;2737;52.386;9.980;2023-03-12T04:43:13;-1.80;99.90
5429;DHT22;2737;52.386;9.980;2023-03-12T04:45:40;-1.80;99.90
5429;DHT22;2737;52.386;9.980;2023-03-12T04:48:08;-1.80;99.90
5429;DHT22;2737;52.386;9.980;2023-03-12T04:50:35;-1.80;99.90
5429;DHT22;2737;52.386;9.980;2023-03-12T04:53:02;-1.80;99.90
5429;DHT22;2737;52.386;9.980;2023-03-12T04:55:29;-1.80;99.90
5429;DHT22;2737;52.386;9.980;2023-03-12T04:57:56;-1.90;99.90
5429;DHT22;2737;52.386;9.980;2023-03-12T05:00:24;-1.90;99.90
5429;DHT22;2737;52.386;9.980;2023-03-12T05:02:52;-1.90;99.90
5429;DHT22;2737;52.386;9.980;2023-03-12T05:05:19;-1.90;99.90
5429;DHT22;2737;52.386;9.980;2023-03-12T05:07:46;-2.00;99.90
5429;DHT22;2737;52.386;9.980;2023-03-12T05:12:40;-2.00;99.90
5429;DHT22;2737;52.386;9.980;2023-03-12T05:15:08;-2.00;99.90
5429;DHT22;2737;52.386;9.980;2023-03-12T05:17:37;-2.00;99.90
5429;DHT22;2737;52.386;9.980;2023-03-12T05:20:04;-2.10;99.90
5429;DHT22;2737;52.386;9.980;2023-03-12T05:22:31;-2.10;99.90
5429;DHT22;2737;52.386;9.980;2023-03-12T05:24:58;-2.10;99.90
5429;DHT22;2737;52.386;9.980;2023-03-12T05:27:26;-2.10;99.90
5429;DHT22;2737;52.386;9.980;2023-03-12T05:29:53;-2.10;99.90
5429;DHT22;2737;52.386;9.980;2023-03-12T05:32:20;-2.10;99.90
5429;DHT22;2737;52.386;9.980;2023-03-12T05:34:48;-2.00;99.90
5429;DHT22;2737;52.386;9.980;2023-03-12T05:37:15;-2.00;99.90
5429;DHT22;2737;52.386;9.980;2023-03-12T05:39:42;-1.90;99.90
5429;DHT22;2737;52.386;9.980;2023-03-12T05:42:11;-1.80;99.90
5429;DHT22;2737;52.386;9.980;2023-03-12T05:44:38;-1.90;99.90
5429;DHT22;2737;52.386;9.980;2023-03-12T05:47:06;-1.80;99.90
5429;DHT22;2737;52.386;9.980;2023-03-12T05:49:33;-1.80;99.90
5429;DHT22;2737;52.386;9.980;2023-03-12T05:52:01;-1.80;99.90
5429;DHT22;2737;52.386;9.980;2023-03-12T05:54:28;-1.80;99.90
5429;DHT22;2737;52.386;9.980;2023-03-12T05:56:55;-1.70;99.90
5429;DHT22;2737;52.386;9.980;2023-03-12T05:59:22;-1.70;99.90
5429;DHT22;2737;52.386;9.980;2023-03-12T06:01:49;-1.70;99.90
5429;DHT22;2737;52.386;9.980;2023-03-12T06:04:16;-1.70;99.90
5429;DHT22;2737;52.386;9.980;2023-03-12T06:06:43;-1.70;99.90
5429;DHT22;2737;52.386;9.980;2023-03-12T06:09:12;-1.60;99.90
5429;DHT22;2737;52.386;9.980;2023-03-12T06:11:39;-1.60;99.90
5429;DHT22;2737;52.386;9.980;2023-03-12T06:14:06;-1.50;99.90
5429;DHT22;2737;52.386;9.980;2023-03-12T06:16:33;-1.40;99.90
5429;DHT22;2737;52.386;9.980;2023-03-12T06:19:01;-1.40;99.90
5429;DHT22;2737;52.386;9.980;2023-03-12T06:21:30;-1.40;99.90
5429;DHT22;2737;52.386;9.980;2023-03-12T06:23:58;-1.30;99.90
5429;DHT22;2737;52.386;9.980;2023-03-12T06:26:27;-1.30;99.90
5429;DHT22;2737;52.386;9.980;2023-03-12T06:28:54;-1.20;99.90
5429;DHT22;2737;52.386;9.980;2023-03-12T06:31:21;-1.10;99.90
5429;DHT22;2737;52.386;9.980;2023-03-12T06:33:49;-1.00;99.90
5429;DHT22;2737;52.386;9.980;2023-03-12T06:36:16;-1.00;99.90
5429;DHT22;2737;52.386;9.980;2023-03-12T06:38:43;-1.00;99.90
5429;DHT22;2737;52.386;9.980;2023-03-12T06:41:12;-0.90;99.90
5429;DHT22;2737;52.386;9.980;2023-03-12T06:43:42;-0.90;99.90
5429;DHT22;2737;52.386;9.980;2023-03-12T06:46:12;-0.80;99.90
5429;DHT22;2737;52.386;9.980;2023-03-12T06:48:39;-0.80;99.90
5429;DHT22;2737;52.386;9.980;2023-03-12T06:51:07;-0.80;99.90
5429;DHT22;2737;52.386;9.980;2023-03-12T06:53:34;-0.70;99.90
5429;DHT22;2737;52.386;9.980;2023-03-12T06:56:02;-0.70;99.90
5429;DHT22;2737;52.386;9.980;2023-03-12T06:58:29;-0.60;99.90
5429;DHT22;2737;52.386;9.980;2023-03-12T07:00:58;-0.60;99.90
5429;DHT22;2737;52.386;9.980;2023-03-12T07:03:25;-0.50;99.90
5429;DHT22;2737;52.386;9.980;2023-03-12T07:05:55;-0.50;99.90
5429;DHT22;2737;52.386;9.980;2023-03-12T07:08:23;-0.40;99.90
5429;DHT22;2737;52.386;9.980;2023-03-12T07:10:50;-0.40;99.90
5429;DHT22;2737;52.386;9.980;2023-03-12T07:13:17;-0.30;99.90
5429;DHT22;2737;52.386;9.980;2023-03-12T07:15:44;-0.30;99.90
5429;DHT22;2737;52.386;9.980;2023-03-12T07:18:13;-0.20;99.90
5429;DHT22;2737;52.386;9.980;2023-03-12T07:20:41;-0.20;99.90
5429;DHT22;2737;52.386;9.980;2023-03-12T07:23:09;-0.20;99.90
5429;DHT22;2737;52.386;9.980;2023-03-12T07:25:37;-0.10;99.90
5429;DHT22;2737;52.386;9.980;2023-03-12T07:28:05;-0.10;99.90
5429;DHT22;2737;52.386;9.980;2023-03-12T07:30:33;0.00;99.90
5429;DHT22;2737;52.386;9.980;2023-03-12T07:33:00;0.00;99.90
5429;DHT22;2737;52.386;9.980;2023-03-12T07:35:28;0.00;99.90
5429;DHT22;2737;52.386;9.980;2023-03-12T07:37:55;0.00;99.90
5429;DHT22;2737;52.386;9.980;2023-03-12T07:40:22;0.10;99.90
5429;DHT22;2737;52.386;9.980;2023-03-12T07:42:50;0.20;99.90
5429;DHT22;2737;52.386;9.980;2023-03-12T07:45:18;0.30;99.90
5429;DHT22;2737;52.386;9.980;2023-03-12T07:47:45;0.40;99.90
5429;DHT22;2737;52.386;9.980;2023-03-12T07:50:13;0.40;99.90
5429;DHT22;2737;52.386;9.980;2023-03-12T07:52:42;0.50;99.90
5429;DHT22;2737;52.386;9.980;2023-03-12T07:55:10;0.60;99.90
5429;DHT22;2737;52.386;9.980;2023-03-12T07:57:37;0.70;99.90
5429;DHT22;2737;52.386;9.980;2023-03-12T08:00:05;0.80;99.90
5429;DHT22;2737;52.386;9.980;2023-03-12T08:02:35;0.80;99.90
5429;DHT22;2737;52.386;9.980;2023-03-12T08:05:02;0.90;99.90
5429;DHT22;2737;52.386;9.980;2023-03-12T08:07:30;1.00;99.90
5429;DHT22;2737;52.386;9.980;2023-03-12T08:10:01;1.10;99.90
5429;DHT22;2737;52.386;9.980;2023-03-12T08:12:29;1.20;99.90
5429;DHT22;2737;52.386;9.980;2023-03-12T08:14:56;1.20;99.90
5429;DHT22;2737;52.386;9.980;2023-03-12T08:17:23;1.20;99.90
5429;DHT22;2737;52.386;9.980;2023-03-12T08:19:50;1.20;99.90
5429;DHT22;2737;52.386;9.980;2023-03-12T08:22:17;1.30;99.90
5429;DHT22;2737;52.386;9.980;2023-03-12T08:24:44;1.40;99.90
5429;DHT22;2737;52.386;9.980;2023-03-12T08:27:12;1.50;99.90
5429;DHT22;2737;52.386;9.980;2023-03-12T08:29:40;1.50;99.90
5429;DHT22;2737;52.386;9.980;2023-03-12T08:32:07;1.50;99.90
5429;DHT22;2737;52.386;9.980;2023-03-12T08:34:35;1.50;99.90
5429;DHT22;2737;52.386;9.980;2023-03-12T08:37:02;1.60;99.90
5429;DHT22;2737;52.386;9.980;2023-03-12T08:39:29;1.60;99.90
5429;DHT22;2737;52.386;9.980;2023-03-12T08:41:56;1.70;99.90
5429;DHT22;2737;52.386;9.980;2023-03-12T08:44:25;1.70;99.90
5429;DHT22;2737;52.386;9.980;2023-03-12T08:46:52;1.70;99.90
5429;DHT22;2737;52.386;9.980;2023-03-12T08:49:20;1.80;99.90
5429;DHT22;2737;52.386;9.980;2023-03-12T08:51:48;1.70;99.90
5429;DHT22;2737;52.386;9.980;2023-03-12T08:54:16;1.80;99.90
5429;DHT22;2737;52.386;9.980;2023-03-12T08:56:43;1.90;99.90
5429;DHT22;2737;52.386;9.980;2023-03-12T08:59:12;1.90;99.90
5429;DHT22;2737;52.386;9.980;2023-03-12T09:01:40;2.00;99.90
5429;DHT22;2737;52.386;9.980;2023-03-12T09:04:07;2.00;99.90
5429;DHT22;2737;52.386;9.980;2023-03-12T09:06:34;2.10;99.90
5429;DHT22;2737;52.386;9.980;2023-03-12T09:09:03;2.20;99.90
5429;DHT22;2737;52.386;9.980;2023-03-12T09:11:31;2.30;99.90
5429;DHT22;2737;52.386;9.980;2023-03-12T09:13:59;2.40;99.90
5429;DHT22;2737;52.386;9.980;2023-03-12T09:16:26;2.40;99.90
5429;DHT22;2737;52.386;9.980;2023-03-12T09:18:55;2.60;99.90
5429;DHT22;2737;52.386;9.980;2023-03-12T09:21:22;2.60;99.90
5429;DHT22;2737;52.386;9.980;2023-03-12T09:23:49;2.60;99.90
5429;DHT22;2737;52.386;9.980;2023-03-12T09:26:16;2.60;99.90
5429;DHT22;2737;52.386;9.980;2023-03-12T09:28:43;2.70;99.90
5429;DHT22;2737;52.386;9.980;2023-03-12T09:31:10;2.70;99.90
5429;DHT22;2737;52.386;9.980;2023-03-12T09:33:37;2.70;99.90
5429;DHT22;2737;52.386;9.980;2023-03-12T09:36:06;2.70;99.90
5429;DHT22;2737;52.386;9.980;2023-03-12T09:38:33;2.70;99.90
5429;DHT22;2737;52.386;9.980;2023-03-12T09:41:03;2.80;99.90
5429;DHT22;2737;52.386;9.980;2023-03-12T09:43:34;2.90;99.90
5429;DHT22;2737;52.386;9.980;2023-03-12T09:46:03;3.10;99.90
5429;DHT22;2737;52.386;9.980;2023-03-12T09:48:36;3.30;99.90
5429;DHT22;2737;52.386;9.980;2023-03-12T09:51:07;3.20;99.90
5429;DHT22;2737;52.386;9.980;2023-03-12T09:53:42;3.30;99.90
5429;DHT22;2737;52.386;9.980;2023-03-12T09:56:14;3.40;99.90
5429;DHT22;2737;52.386;9.980;2023-03-12T09:58:43;3.40;99.90
5429;DHT22;2737;52.386;9.980;2023-03-12T10:01:32;3.40;99.90
5429;DHT22;2737;52.386;9.980;2023-03-12T10:04:17;3.40;99.90
5429;DHT22;2737;52.386;9.980;2023-03-12T10:06:52;3.50;99.90
5429;DHT22;2737;52.386;9.980;2023-03-12T10:09:35;3.60;99.90
5429;DHT22;2737;52.386;9.980;2023-03-12T10:12:12;3.80;99.90
5429;DHT22;2737;52.386;9.980;2023-03-12T10:14:49;3.80;99.90
5429;DHT22;2737;52.386;9.980;2023-03-12T10:17:35;3.80;99.90
5429;DHT22;2737;52.386;9.980;2023-03-12T10:23:07;4.00;99.90
5429;DHT22;2737;52.386;9.980;2023-03-12T10:25:39;4.00;99.90
5429;DHT22;2737;52.386;9.980;2023-03-12T10:28:12;3.90;99.90
5429;DHT22;2737;52.386;9.980;2023-03-12T10:30:46;3.90;99.90
5429;DHT22;2737;52.386;9.980;2023-03-12T10:33:17;3.80;99.90
5429;DHT22;2737;52.386;9.980;2023-03-12T10:35:45;3.80;99.90
5429;DHT22;2737;52.386;9.980;2023-03-12T10:38:19;3.70;99.90
5429;DHT22;2737;52.386;9.980;2023-03-12T10:40:48;3.70;99.90
5429;DHT22;2737;52.386;9.980;2023-03-12T10:43:15;3.80;99.90
5429;DHT22;2737;52.386;9.980;2023-03-12T10:45:46;3.80;99.90
5429;DHT22;2737;52.386;9.980;2023-03-12T10:48:19;3.90;99.90
5429;DHT22;2737;52.386;9.980;2023-03-12T10:51:00;4.00;99.90
5429;DHT22;2737;52.386;9.980;2023-03-12T10:53:31;4.00;99.90
5429;DHT22;2737;52.386;9.980;2023-03-12T10:56:02;4.10;99.90
5429;DHT22;2737;52.386;9.980;2023-03-12T10:58:34;4.10;99.90
5429;DHT22;2737;52.386;9.980;2023-03-12T11:01:04;4.10;99.90
5429;DHT22;2737;52.386;9.980;2023-03-12T11:03:32;4.10;99.90
5429;DHT22;2737;52.386;9.980;2023-03-12T11:06:00;4.10;99.90
5429;DHT22;2737;52.386;9.980;2023-03-12T11:08:30;4.00;99.90
5429;DHT22;2737;52.386;9.980;2023-03-12T11:10:58;3.90;99.90
5429;DHT22;2737;52.386;9.980;2023-03-12T11:13:28;3.90;99.90
5429;DHT22;2737;52.386;9.980;2023-03-12T11:15:56;3.80;99.90
5429;DHT22;2737;52.386;9.980;2023-03-12T11:18:34;3.70;99.90
5429;DHT22;2737;52.386;9.980;2023-03-12T11:21:15;3.60;99.90
5429;DHT22;2737;52.386;9.980;2023-03-12T11:26:31;3.60;99.90
5429;DHT22;2737;52.386;9.980;2023-03-12T11:29:02;3.50;99.90
5429;DHT22;2737;52.386;9.980;2023-03-12T11:31:32;3.40;99.90
5429;DHT22;2737;52.386;9.980;2023-03-12T11:34:04;3.40;99.90
5429;DHT22;2737;52.386;9.980;2023-03-12T11:36:41;3.50;99.90
5429;DHT22;2737;52.386;9.980;2023-03-12T11:39:22;3.40;99.90
5429;DHT22;2737;52.386;9.980;2023-03-12T11:42:05;3.50;99.90
5429;DHT22;2737;52.386;9.980;2023-03-12T11:44:43;3.50;99.90
5429;DHT22;2737;52.386;9.980;2023-03-12T11:47:27;3.50;99.90
5429;DHT22;2737;52.386;9.980;2023-03-12T11:50:06;3.50;99.90
5429;DHT22;2737;52.386;9.980;2023-03-12T11:52:43;3.40;99.90
5429;DHT22;2737;52.386;9.980;2023-03-12T11:55:25;3.40;99.90
5429;DHT22;2737;52.386;9.980;2023-03-12T11:58:12;3.40;99.90
5429;DHT22;2737;52.386;9.980;2023-03-12T12:00:49;3.50;99.90
5429;DHT22;2737;52.386;9.980;2023-03-12T12:03:41;3.60;99.90
5429;DHT22;2737;52.386;9.980;2023-03-12T12:06:16;3.60;99.90
5429;DHT22;2737;52.386;9.980;2023-03-12T12:08:59;3.60;99.90
5429;DHT22;2737;52.386;9.980;2023-03-12T12:11:36;3.70;99.90
5429;DHT22;2737;52.386;9.980;2023-03-12T12:14:14;3.70;99.90
5429;DHT22;2737;52.386;9.980;2023-03-12T12:16:59;3.60;99.90
5429;DHT22;2737;52.386;9.980;2023-03-12T12:19:38;3.50;99.90
5429;DHT22;2737;52.386;9.980;2023-03-12T12:22:26;3.40;99.90
5429;DHT22;2737;52.386;9.980;2023-03-12T12:25:18;3.40;99.90
5429;DHT22;2737;52.386;9.980;2023-03-12T12:27:58;3.30;99.90
5429;DHT22;2737;52.386;9.980;2023-03-12T12:30:37;3.30;99.90
5429;DHT22;2737;52.386;9.980;2023-03-12T12:33:18;3.30;99.90
5429;DHT22;2737;52.386;9.980;2023-03-12T12:35:49;3.30;99.90
5429;DHT22;2737;52.386;9.980;2023-03-12T12:38:21;3.40;99.90
5429;DHT22;2737;52.386;9.980;2023-03-12T12:40:58;3.40;99.90
5429;DHT22;2737;52.386;9.980;2023-03-12T12:43:31;3.30;99.90
5429;DHT22;2737;52.386;9.980;2023-03-12T12:46:03;3.20;99.90
5429;DHT22;2737;52.386;9.980;2023-03-12T12:48:34;3.10;99.90
5429;DHT22;2737;52.386;9.980;2023-03-12T12:51:03;3.00;99.90
5429;DHT22;2737;52.386;9.980;2023-03-12T12:53:37;3.00;99.90
5429;DHT22;2737;52.386;9.980;2023-03-12T12:56:12;2.90;99.90
5429;DHT22;2737;52.386;9.980;2023-03-12T12:58:58;2.90;99.90
5429;DHT22;2737;52.386;9.980;2023-03-12T13:01:28;3.00;99.90
5429;DHT22;2737;52.386;9.980;2023-03-12T13:04:00;3.00;99.90
5429;DHT22;2737;52.386;9.980;2023-03-12T13:06:28;3.00;99.90
5429;DHT22;2737;52.386;9.980;2023-03-12T13:09:19;3.00;99.90
5429;DHT22;2737;52.386;9.980;2023-03-12T13:11:47;3.00;99.90
5429;DHT22;2737;52.386;9.980;2023-03-12T13:14:34;3.10;99.90
5429;DHT22;2737;52.386;9.980;2023-03-12T13:17:07;3.10;99.90
5429;DHT22;2737;52.386;9.980;2023-03-12T13:19:39;3.10;99.90
5429;DHT22;2737;52.386;9.980;2023-03-12T13:22:13;3.10;99.90
5429;DHT22;2737;52.386;9.980;2023-03-12T13:24:47;3.10;99.90
5429;DHT22;2737;52.386;9.980;2023-03-12T13:27:19;3.00;99.90
5429;DHT22;2737;52.386;9.980;2023-03-12T13:29:50;3.10;99.90
5429;DHT22;2737;52.386;9.980;2023-03-12T13:35:28;3.10;99.90
5429;DHT22;2737;52.386;9.980;2023-03-12T13:38:05;3.10;99.90
5429;DHT22;2737;52.386;9.980;2023-03-12T13:43:50;3.10;99.90
5429;DHT22;2737;52.386;9.980;2023-03-12T13:46:33;3.20;99.90
5429;DHT22;2737;52.386;9.980;2023-03-12T13:49:15;3.10;99.90
5429;DHT22;2737;52.386;9.980;2023-03-12T13:51:44;3.10;99.90
5429;DHT22;2737;52.386;9.980;2023-03-12T13:54:15;3.10;99.90
5429;DHT22;2737;52.386;9.980;2023-03-12T13:56:53;3.10;99.90
5429;DHT22;2737;52.386;9.980;2023-03-12T13:59:22;3.10;99.90
5429;DHT22;2737;52.386;9.980;2023-03-12T14:01:55;3.10;99.90
5429;DHT22;2737;52.386;9.980;2023-03-12T14:04:32;3.10;99.90
5429;DHT22;2737;52.386;9.980;2023-03-12T14:10:15;3.10;99.90
5429;DHT22;2737;52.386;9.980;2023-03-12T14:12:52;3.10;99.90
5429;DHT22;2737;52.386;9.980;2023-03-12T14:15:28;3.10;99.90
5429;DHT22;2737;52.386;9.980;2023-03-12T14:18:00;3.10;99.90
5429;DHT22;2737;52.386;9.980;2023-03-12T14:20:29;3.20;99.90
5429;DHT22;2737;52.386;9.980;2023-03-12T14:22:59;3.30;99.90
5429;DHT22;2737;52.386;9.980;2023-03-12T14:25:33;3.30;99.90
5429;DHT22;2737;52.386;9.980;2023-03-12T14:28:01;3.30;99.90
5429;DHT22;2737;52.386;9.980;2023-03-12T14:30:38;3.20;99.90
5429;DHT22;2737;52.386;9.980;2023-03-12T14:33:12;3.20;99.90
5429;DHT22;2737;52.386;9.980;2023-03-12T14:35:43;3.20;99.90
5429;DHT22;2737;52.386;9.980;2023-03-12T14:38:15;3.20;99.90
5429;DHT22;2737;52.386;9.980;2023-03-12T14:40:47;3.20;99.90
5429;DHT22;2737;52.386;9.980;2023-03-12T14:43:22;3.10;99.90
5429;DHT22;2737;52.386;9.980;2023-03-12T14:45:53;3.10;99.90
5429;DHT22;2737;52.386;9.980;2023-03-12T14:48:25;3.10;99.90
5429;DHT22;2737;52.386;9.980;2023-03-12T14:50:55;3.10;99.90
5429;DHT22;2737;52.386;9.980;2023-03-12T14:53:25;3.10;99.90
5429;DHT22;2737;52.386;9.980;2023-03-12T14:56:01;3.10;99.90
5429;DHT22;2737;52.386;9.980;2023-03-12T14:58:28;3.10;99.90
5429;DHT22;2737;52.386;9.980;2023-03-12T15:00:57;3.10;99.90
5429;DHT22;2737;52.386;9.980;2023-03-12T15:03:28;3.10;99.90
5429;DHT22;2737;52.386;9.980;2023-03-12T15:05:55;3.10;99.90
5429;DHT22;2737;52.386;9.980;2023-03-12T15:08:23;3.10;99.90
5429;DHT22;2737;52.386;9.980;2023-03-12T15:10:53;3.10;99.90
5429;DHT22;2737;52.386;9.980;2023-03-12T15:13:22;3.20;99.90
5429;DHT22;2737;52.386;9.980;2023-03-12T15:15:52;3.20;99.90
5429;DHT22;2737;52.386;9.980;2023-03-12T15:18:23;3.20;99.90
5429;DHT22;2737;52.386;9.980;2023-03-12T15:20:54;3.30;99.90
5429;DHT22;2737;52.386;9.980;2023-03-12T15:23:23;3.30;99.90
5429;DHT22;2737;52.386;9.980;2023-03-12T15:26:12;3.30;99.90
5429;DHT22;2737;52.386;9.980;2023-03-12T15:28:40;3.30;99.90
5429;DHT22;2737;52.386;9.980;2023-03-12T15:31:12;3.30;99.90
5429;DHT22;2737;52.386;9.980;2023-03-12T15:33:41;3.30;99.90
5429;DHT22;2737;52.386;9.980;2023-03-12T15:36:24;3.30;99.90
5429;DHT22;2737;52.386;9.980;2023-03-12T15:38:53;3.40;99.90
5429;DHT22;2737;52.386;9.980;2023-03-12T15:41:24;3.40;99.90
5429;DHT22;2737;52.386;9.980;2023-03-12T15:43:53;3.40;99.90
5429;DHT22;2737;52.386;9.980;2023-03-12T15:46:22;3.40;99.90
5429;DHT22;2737;52.386;9.980;2023-03-12T15:48:50;3.40;99.90
5429;DHT22;2737;52.386;9.980;2023-03-12T15:51:34;3.40;99.90
5429;DHT22;2737;52.386;9.980;2023-03-12T15:54:04;3.40;99.90
5429;DHT22;2737;52.386;9.980;2023-03-12T15:56:33;3.40;99.90
5429;DHT22;2737;52.386;9.980;2023-03-12T15:59:17;3.50;99.90
5429;DHT22;2737;52.386;9.980;2023-03-12T16:01:47;3.50;99.90
5429;DHT22;2737;52.386;9.980;2023-03-12T16:04:14;3.50;99.90
5429;DHT22;2737;52.386;9.980;2023-03-12T16:06:43;3.60;99.90
5429;DHT22;2737;52.386;9.980;2023-03-12T16:09:15;3.60;99.90
5429;DHT22;2737;52.386;9.980;2023-03-12T16:11:44;3.60;99.90
5429;DHT22;2737;52.386;9.980;2023-03-12T16:14:15;3.60;99.90
5429;DHT22;2737;52.386;9.980;2023-03-12T16:16:43;3.70;99.90
5429;DHT22;2737;52.386;9.980;2023-03-12T16:19:11;3.70;99.90
5429;DHT22;2737;52.386;9.980;2023-03-12T16:21:38;3.70;99.90
5429;DHT22;2737;52.386;9.980;2023-03-12T16:24:07;3.80;99.90
5429;DHT22;2737;52.386;9.980;2023-03-12T16:26:37;3.80;99.90
5429;DHT22;2737;52.386;9.980;2023-03-12T16:29:09;3.80;99.90
5429;DHT22;2737;52.386;9.980;2023-03-12T16:31:40;3.80;99.90
5429;DHT22;2737;52.386;9.980;2023-03-12T16:34:08;3.90;99.90
5429;DHT22;2737;52.386;9.980;2023-03-12T16:36:35;4.00;99.90
5429;DHT22;2737;52.386;9.980;2023-03-12T16:39:03;4.00;99.90
5429;DHT22;2737;52.386;9.980;2023-03-12T16:41:32;4.00;99.90
5429;DHT22;2737;52.386;9.980;2023-03-12T16:43:59;4.10;99.90
5429;DHT22;2737;52.386;9.980;2023-03-12T16:46:28;4.10;99.90
5429;DHT22;2737;52.386;9.980;2023-03-12T16:48:56;4.10;99.90